createdAt,value
2023-03-29T00:01:35.708Z,16.75
2023-03-29T00:08:01.353Z,17.85
2023-03-29T00:11:18.290Z,15.80
2023-03-29T00:14:35.471Z,18.38
2023-03-29T00:17:51.845Z,16.63
2023-03-29T00:21:09.357Z,18.33
2023-03-29T00:24:26.146Z,19.90
2023-03-29T00:27:42.873Z,16.30
2023-03-29T00:30:59.755Z,22.03
2023-03-29T00:34:16.655Z,18.70
2023-03-29T00:37:33.408Z,21.55
2023-03-29T00:40:53.666Z,20.55
2023-03-29T00:47:29.765Z,22.68
2023-03-29T00:50:51.700Z,21.58
2023-03-29T00:54:11.678Z,20.25
2023-03-29T00:57:31.133Z,24.05
2023-03-29T01:04:14.338Z,19.78
2023-03-29T01:07:36.298Z,26.80
2023-03-29T01:10:57.480Z,22.80
2023-03-29T01:14:18.332Z,26.23
2023-03-29T01:17:36.596Z,23.48
2023-03-29T01:21:07.456Z,23.78
2023-03-29T01:24:53.841Z,26.15
2023-03-29T01:31:30.979Z,23.38
2023-03-29T01:34:53.849Z,24.63
2023-03-29T01:38:16.447Z,23.23
2023-03-29T01:41:40.641Z,26.58
2023-03-29T01:45:04.558Z,25.18
2023-03-29T01:48:27.661Z,24.40
2023-03-29T01:51:49.764Z,25.40
2023-03-29T01:55:11.548Z,24.25
2023-03-29T01:58:34.617Z,24.83
2023-03-29T02:01:55.783Z,25.23
2023-03-29T02:05:16.613Z,22.33
2023-03-29T02:08:34.063Z,22.15
2023-03-29T02:11:52.931Z,26.63
2023-03-29T02:15:10.141Z,24.75
2023-03-29T02:18:28.375Z,24.70
2023-03-29T02:21:49.448Z,26.18
2023-03-29T02:25:10.314Z,29.20
2023-03-29T02:28:28.332Z,28.73
2023-03-29T02:31:50.652Z,30.08
2023-03-29T02:35:13.911Z,28.88
2023-03-29T02:38:32.266Z,29.53
2023-03-29T02:41:52.132Z,32.48
2023-03-29T02:45:11.435Z,29.43
2023-03-29T02:48:31.512Z,29.78
2023-03-29T02:51:48.582Z,29.58
2023-03-29T02:55:07.393Z,30.50
2023-03-29T02:58:25.980Z,34.45
2023-03-29T03:01:43.561Z,30.35
2023-03-29T03:05:00.888Z,27.88
2023-03-29T03:08:18.009Z,31.78
2023-03-29T03:11:34.666Z,30.30
2023-03-29T03:14:51.367Z,29.80
2023-03-29T03:18:07.959Z,30.70
2023-03-29T03:21:25.513Z,29.15
2023-03-29T03:24:41.920Z,27.00
2023-03-29T03:27:59.998Z,25.50
2023-03-29T03:31:18.394Z,29.43
2023-03-29T03:34:36.936Z,24.60
2023-03-29T03:37:53.717Z,28.63
2023-03-29T03:41:12.638Z,28.53
2023-03-29T03:44:29.667Z,22.70
2023-03-29T03:47:57.827Z,27.63
2023-03-29T03:51:17.065Z,30.68
2023-03-29T03:54:33.707Z,25.00
2023-03-29T03:57:52.892Z,28.33
2023-03-29T04:01:10.851Z,24.20
2023-03-29T04:07:51.279Z,24.20
2023-03-29T04:11:13.365Z,26.55
2023-03-29T04:14:33.187Z,30.18
2023-03-29T04:17:50.253Z,24.13
2023-03-29T04:21:08.659Z,25.35
2023-03-29T04:24:26.185Z,27.38
2023-03-29T04:31:47.299Z,24.50
2023-03-29T04:35:05.773Z,24.60
2023-03-29T04:38:24.700Z,21.53
2023-03-29T04:41:42.603Z,23.88
2023-03-29T04:48:19.531Z,28.45
2023-03-29T04:51:36.609Z,24.00
2023-03-29T04:54:53.158Z,22.10
2023-03-29T04:58:15.333Z,24.50
2023-03-29T05:01:32.019Z,22.75
2023-03-29T05:04:49.697Z,20.10
2023-03-29T05:08:06.547Z,24.88
2023-03-29T05:11:26.321Z,22.40
2023-03-29T05:14:42.741Z,22.83
2023-03-29T05:17:59.914Z,19.53
2023-03-29T05:21:16.755Z,19.80
2023-03-29T05:24:34.209Z,19.68
2023-03-29T05:28:00.812Z,20.65
2023-03-29T05:31:18.464Z,21.18
2023-03-29T05:34:37.471Z,18.90
2023-03-29T05:37:56.201Z,18.35
2023-03-29T05:41:14.026Z,21.30
2023-03-29T05:48:06.526Z,16.68
2023-03-29T05:51:25.384Z,20.38
2023-03-29T05:57:58.964Z,16.68
2023-03-29T06:01:23.574Z,16.88
2023-03-29T06:04:50.718Z,16.68
2023-03-29T06:08:13.393Z,16.38
2023-03-29T06:11:45.996Z,16.63
2023-03-29T06:15:15.223Z,17.85
2023-03-29T06:21:48.209Z,16.45
2023-03-29T06:25:06.563Z,13.77
2023-03-29T06:28:23.749Z,12.70
2023-03-29T06:31:41.661Z,17.00
2023-03-29T06:38:18.564Z,12.38
2023-03-29T06:41:43.572Z,13.65
2023-03-29T06:45:07.655Z,11.30
2023-03-29T06:48:25.725Z,15.85
2023-03-29T06:51:42.604Z,11.73
2023-03-29T06:54:59.424Z,11.95
2023-03-29T07:01:34.007Z,8.95
2023-03-29T07:04:52.849Z,8.90
2023-03-29T07:08:21.994Z,9.65
2023-03-29T07:11:41.173Z,11.45
2023-03-29T07:18:20.959Z,11.13
2023-03-29T07:21:38.110Z,10.05
2023-03-29T07:24:54.447Z,9.93
2023-03-29T07:28:12.001Z,8.35
2023-03-29T07:31:30.226Z,11.18
2023-03-29T07:34:49.309Z,8.88
2023-03-29T07:38:09.123Z,10.38
2023-03-29T07:41:27.684Z,10.15
2023-03-29T07:48:08.055Z,10.68
2023-03-29T07:51:28.290Z,10.03
2023-03-29T07:54:46.706Z,10.00
2023-03-29T07:58:13.418Z,7.30
2023-03-29T08:01:32.017Z,8.48
2023-03-29T08:05:06.231Z,7.48
2023-03-29T08:08:39.481Z,6.18
2023-03-29T08:11:58.547Z,5.00
2023-03-29T08:15:20.250Z,5.58
2023-03-29T08:18:36.725Z,6.33
2023-03-29T08:21:54.746Z,5.83
2023-03-29T08:25:15.334Z,4.90
2023-03-29T08:28:34.584Z,5.13
2023-03-29T08:31:51.116Z,4.60
2023-03-29T08:35:08.141Z,5.20
2023-03-29T08:38:32.805Z,21.60
2023-03-29T08:42:01.773Z,10.03
2023-03-29T08:45:26.067Z,5.55
2023-03-29T08:48:50.364Z,5.40
2023-03-29T08:52:17.317Z,6.15
2023-03-29T08:55:39.067Z,5.03
2023-03-29T08:59:12.852Z,5.38
2023-03-29T09:02:33.142Z,5.75
2023-03-29T09:05:55.292Z,5.18
2023-03-29T09:09:30.387Z,4.30
2023-03-29T09:12:59.595Z,5.63
2023-03-29T09:19:40.010Z,3.68
2023-03-29T09:23:03.872Z,3.35
2023-03-29T09:26:29.281Z,3.70
2023-03-29T09:30:05.701Z,4.80
2023-03-29T09:33:28.914Z,8.88
2023-03-29T09:36:51.265Z,5.08
2023-03-29T09:40:14.668Z,4.65
2023-03-29T09:49:08.806Z,2.73
2023-03-29T09:52:26.727Z,3.80
2023-03-29T09:56:04.375Z,3.15
2023-03-29T09:59:27.313Z,3.98
2023-03-29T10:02:44.304Z,3.55
2023-03-29T10:06:06.160Z,3.20
2023-03-29T10:09:29.971Z,3.60
2023-03-29T10:12:51.245Z,3.98
2023-03-29T10:16:24.883Z,4.40
2023-03-29T10:19:43.109Z,3.40
2023-03-29T10:23:05.225Z,3.30
2023-03-29T10:26:30.611Z,3.70
2023-03-29T10:29:49.601Z,4.50
2023-03-29T10:33:34.105Z,3.90
2023-03-29T10:36:55.183Z,3.40
2023-03-29T10:40:13.492Z,3.48
2023-03-29T10:43:38.342Z,3.83
2023-03-29T10:46:54.864Z,3.40
2023-03-29T10:50:14.695Z,4.73
2023-03-29T10:53:36.320Z,3.48
2023-03-29T10:56:58.171Z,3.48
2023-03-29T11:00:22.314Z,3.25
2023-03-29T11:03:53.370Z,5.63
2023-03-29T11:07:38.051Z,4.30
2023-03-29T11:11:02.215Z,4.33
2023-03-29T11:14:28.837Z,3.03
2023-03-29T11:17:56.920Z,2.13
2023-03-29T11:21:19.908Z,3.00
2023-03-29T11:24:48.231Z,3.23
2023-03-29T11:28:12.001Z,5.88
2023-03-29T11:31:38.825Z,4.13
2023-03-29T11:35:06.563Z,3.73
2023-03-29T11:38:33.807Z,3.73
2023-03-29T11:41:54.277Z,5.33
2023-03-29T11:48:31.711Z,5.25
2023-03-29T11:51:51.844Z,3.28
2023-03-29T11:55:13.040Z,3.83
2023-03-29T11:58:38.273Z,3.23
2023-03-29T12:05:14.818Z,3.78
2023-03-29T12:08:38.400Z,5.25
2023-03-29T12:12:00.729Z,3.83
2023-03-29T12:18:46.383Z,3.03
2023-03-29T12:22:09.059Z,3.33
2023-03-29T12:25:32.505Z,3.15
2023-03-29T12:29:13.973Z,3.30
2023-03-29T12:32:49.444Z,4.05
2023-03-29T12:36:44.391Z,3.80
2023-03-29T12:40:09.438Z,3.65
2023-03-29T12:43:48.170Z,3.75
2023-03-29T12:47:22.967Z,2.93
2023-03-29T12:50:43.966Z,4.15
2023-03-29T12:54:04.175Z,3.85
2023-03-29T12:57:35.037Z,20.98
2023-03-29T13:04:30.137Z,5.28
2023-03-29T13:07:56.902Z,6.50
2023-03-29T13:11:18.830Z,7.80
2023-03-29T13:14:40.994Z,5.43
2023-03-29T13:18:03.180Z,4.43
2023-03-29T13:21:28.721Z,4.70
2023-03-29T13:25:10.266Z,3.60
2023-03-29T13:28:33.469Z,4.03
2023-03-29T13:35:19.479Z,3.65
2023-03-29T13:38:37.233Z,4.63
2023-03-29T13:42:04.284Z,4.13
2023-03-29T13:45:29.726Z,4.45
2023-03-29T13:49:09.946Z,5.45
2023-03-29T13:52:32.333Z,5.35
2023-03-29T13:55:54.941Z,6.70
2023-03-29T13:59:18.124Z,4.63
2023-03-29T14:02:47.377Z,4.30
2023-03-29T14:06:08.240Z,5.53
2023-03-29T14:09:29.068Z,5.03
2023-03-29T14:12:47.038Z,7.75
2023-03-29T14:19:28.492Z,4.70
2023-03-29T14:22:47.785Z,4.78
2023-03-29T14:26:11.958Z,4.13
2023-03-29T14:29:29.948Z,4.93
2023-03-29T14:36:05.651Z,4.23
2023-03-29T14:39:26.687Z,6.75
2023-03-29T14:42:44.923Z,4.13
2023-03-29T14:46:02.415Z,5.08
2023-03-29T14:49:24.011Z,4.65
2023-03-29T14:52:41.612Z,3.95
2023-03-29T14:56:01.306Z,5.95
2023-03-29T14:59:34.879Z,5.80
2023-03-29T15:06:12.697Z,4.53
2023-03-29T15:09:34.177Z,6.18
2023-03-29T15:12:52.563Z,4.70
2023-03-29T15:19:28.112Z,6.98
2023-03-29T15:22:45.124Z,8.43
2023-03-29T15:26:07.681Z,4.48
2023-03-29T15:29:29.629Z,5.15
2023-03-29T15:36:03.483Z,5.38
2023-03-29T15:39:23.426Z,5.18
2023-03-29T15:42:39.976Z,7.13
2023-03-29T15:45:56.278Z,4.53
2023-03-29T15:49:14.043Z,7.08
2023-03-29T15:52:30.297Z,6.25
2023-03-29T15:55:51.126Z,5.65
2023-03-29T15:59:07.969Z,6.35
2023-03-29T16:05:40.644Z,4.68
2023-03-29T16:08:57.496Z,5.20
2023-03-29T16:12:14.364Z,6.10
2023-03-29T16:15:33.112Z,5.68
2023-03-29T16:18:49.605Z,5.38
2023-03-29T16:22:08.595Z,5.60
2023-03-29T16:25:28.134Z,11.50
2023-03-29T16:28:44.703Z,9.43
2023-03-29T16:32:02.934Z,6.48
2023-03-29T16:35:27.815Z,7.00
2023-03-29T16:38:44.376Z,7.25
2023-03-29T16:42:00.756Z,5.03
2023-03-29T16:45:22.758Z,6.73
2023-03-29T16:48:39.169Z,5.23
2023-03-29T16:51:56.980Z,4.63
2023-03-29T16:55:19.237Z,6.75
2023-03-29T16:58:38.118Z,6.48
2023-03-29T17:05:11.367Z,5.98
2023-03-29T17:08:28.898Z,7.35
2023-03-29T17:11:45.383Z,8.15
2023-03-29T17:15:01.857Z,5.90
2023-03-29T17:21:22.242Z,7.80
2023-03-29T17:24:38.973Z,7.40
2023-03-29T17:27:56.123Z,8.48
2023-03-29T17:31:15.507Z,8.63
2023-03-29T17:34:35.224Z,11.25
2023-03-29T17:37:51.672Z,11.25
2023-03-29T17:41:09.267Z,9.73
2023-03-29T17:44:26.184Z,11.85
2023-03-29T17:47:43.350Z,11.00
2023-03-29T17:51:02.229Z,11.20
2023-03-29T17:54:18.891Z,15.03
2023-03-29T17:57:35.170Z,16.18
2023-03-29T18:00:51.912Z,22.40
2023-03-29T18:04:09.260Z,19.53
2023-03-29T18:07:26.759Z,23.30
2023-03-29T18:10:44.232Z,20.05
2023-03-29T18:14:05.822Z,20.63
2023-03-29T18:17:22.784Z,21.33
2023-03-29T18:20:39.251Z,21.70
2023-03-29T18:23:57.952Z,19.90
2023-03-29T18:27:16.551Z,18.73
2023-03-29T18:30:33.103Z,23.30
2023-03-29T18:33:50.021Z,23.35
2023-03-29T18:37:08.398Z,21.03
2023-03-29T18:40:25.867Z,19.68
2023-03-29T18:43:45.120Z,21.63
2023-03-29T18:47:03.870Z,20.37
2023-03-29T18:50:21.709Z,21.35
2023-03-29T18:53:38.710Z,25.55
2023-03-29T18:56:57.246Z,26.23
2023-03-29T19:00:16.794Z,27.23
2023-03-29T19:06:48.463Z,36.55
2023-03-29T19:10:06.515Z,29.73
2023-03-29T19:13:23.279Z,29.38
2023-03-29T19:16:42.755Z,29.55
2023-03-29T19:19:59.490Z,30.43
2023-03-29T19:23:16.022Z,29.43
2023-03-29T19:26:34.188Z,33.35
2023-03-29T19:29:50.658Z,27.53
2023-03-29T19:36:23.931Z,25.48
2023-03-29T19:39:42.053Z,29.33
2023-03-29T19:42:58.295Z,24.78
2023-03-29T19:46:18.553Z,24.83
2023-03-29T19:52:51.798Z,20.20
2023-03-29T19:56:10.790Z,18.00
2023-03-29T19:59:27.666Z,19.18
2023-03-29T20:06:00.950Z,18.58
2023-03-29T20:09:17.465Z,18.60
2023-03-29T20:12:33.823Z,15.98
2023-03-29T20:15:52.580Z,18.48
2023-03-29T20:22:26.854Z,17.03
2023-03-29T20:25:45.257Z,14.88
2023-03-29T20:29:01.773Z,17.35
2023-03-29T20:32:18.189Z,15.15
2023-03-29T20:35:34.714Z,14.63
2023-03-29T20:38:51.194Z,13.15
2023-03-29T20:42:07.614Z,16.00
2023-03-29T20:45:24.276Z,18.90
2023-03-29T20:48:42.312Z,19.63
2023-03-29T20:51:59.751Z,18.83
2023-03-29T20:55:19.788Z,29.43
2023-03-29T20:58:36.068Z,25.15
2023-03-29T21:01:53.176Z,20.88
2023-03-29T21:06:02.441Z,18.15
2023-03-29T21:09:20.103Z,16.43
2023-03-29T21:12:38.228Z,15.85
2023-03-29T21:15:56.900Z,17.30
2023-03-29T21:19:13.452Z,15.57
2023-03-29T21:22:31.162Z,18.53
2023-03-29T21:25:47.553Z,18.93
2023-03-29T21:29:04.011Z,16.55
2023-03-29T21:35:37.162Z,16.70
2023-03-29T21:38:53.456Z,16.03
2023-03-29T21:42:10.638Z,16.20
2023-03-29T21:45:27.123Z,14.63
2023-03-29T21:48:44.324Z,14.03
2023-03-29T21:52:00.814Z,16.10
2023-03-29T21:55:19.114Z,15.63
2023-03-29T21:58:35.972Z,13.45
2023-03-29T22:01:52.290Z,15.55
2023-03-29T22:05:08.532Z,16.88
2023-03-29T22:08:25.011Z,17.58
2023-03-29T22:11:41.750Z,17.15
2023-03-29T22:14:58.091Z,17.30
2023-03-29T22:18:14.643Z,16.35
2023-03-29T22:21:34.180Z,17.30
2023-03-29T22:28:05.115Z,16.95
2023-03-29T22:31:25.417Z,17.30
2023-03-29T22:34:42.161Z,15.15
2023-03-29T22:37:58.331Z,15.83
2023-03-29T22:41:15.692Z,19.08
2023-03-29T22:44:32.034Z,16.70
2023-03-29T22:47:48.292Z,18.88
2023-03-29T22:51:06.387Z,16.13
2023-03-29T22:54:22.916Z,16.30
2023-03-29T22:57:40.884Z,16.45
2023-03-29T23:00:58.842Z,15.60
2023-03-29T23:04:16.914Z,14.65
2023-03-29T23:07:36.574Z,14.35
2023-03-29T23:10:55.669Z,17.73
2023-03-29T23:14:12.493Z,17.25
2023-03-29T23:17:29.305Z,14.53
2023-03-29T23:20:48.547Z,15.18
2023-03-29T23:24:05.262Z,13.80
2023-03-29T23:27:23.815Z,13.68
2023-03-29T23:30:42.584Z,16.20
2023-03-29T23:33:59.998Z,16.73
2023-03-29T23:37:16.973Z,13.93
2023-03-29T23:40:34.425Z,12.00
2023-03-29T23:43:53.207Z,12.13
2023-03-29T23:47:10.162Z,13.58
2023-03-29T23:53:42.980Z,12.73
2023-03-29T23:56:59.231Z,13.18
